KEUG/EUG METAR and TAF weather

Enter ICAO airport designator
Station Type Date Time Source
KEUG METAR 2021/07/24 19:54 UTC NOAA

KEUG 241954Z 02013G19KT 10SM CLR 29/12 A3009 RMK AO2 SLP186 T02940117


Station Type Date Time Source
KEUG Decoded METAR 2021/07/24 19:54 UTC NOAA

MAHLON SWEET FIELD, OR, United States (KEUG) 44-08N 123-13W 114M
Jul 24, 2021 - 03:54 PM EDT / 2021.07.24 1954 UTC
Wind: from the NNE (020 degrees) at 15 MPH (13 KT) gusting to 22 MPH (19 KT):0
Visibility: 10 mile(s):0
Sky conditions: clear
Temperature: 84.9 F (29.4 C)
Dew Point: 53.1 F (11.7 C)
Relative Humidity: 33%
Pressure (altimeter): 30.09 in. Hg (1018 hPa)
ob: KEUG 241954Z 02013G19KT 10SM CLR 29/12 A3009 RMK AO2 SLP186 T02940117
cycle: 20

Station Type Date Time Source
KEUG TAF 2021/07/24 18:27 UTC NOAA

TAF KEUG 241723Z 2418/2518 02011KT P6SM SKC
FM242000 01014G22KT P6SM SKC
FM250400 01010KT P6SM SKC
FM250700 01005KT P6SM SKC

Example: see airport list